createdAt,value
2023-01-08T00:02:10.803Z,9.23
2023-01-08T00:04:37.412Z,9.20
2023-01-08T00:07:03.801Z,9.22
2023-01-08T00:09:30.442Z,9.14
2023-01-08T00:11:56.986Z,9.15
2023-01-08T00:14:23.544Z,9.13
2023-01-08T00:16:51.714Z,9.15
2023-01-08T00:19:19.014Z,9.17
2023-01-08T00:21:45.407Z,9.18
2023-01-08T00:24:14.749Z,9.19
2023-01-08T00:26:41.264Z,9.18
2023-01-08T00:29:07.859Z,9.26
2023-01-08T00:31:34.258Z,9.22
2023-01-08T00:34:00.638Z,9.20
2023-01-08T00:36:27.167Z,9.20
2023-01-08T00:38:53.579Z,9.13
2023-01-08T00:41:20.816Z,9.16
2023-01-08T00:43:47.320Z,9.12
2023-01-08T00:46:14.000Z,9.12
2023-01-08T00:48:40.626Z,9.19
2023-01-08T00:51:08.685Z,9.17
2023-01-08T00:53:35.611Z,9.21
2023-01-08T00:56:04.668Z,9.22
2023-01-08T00:58:31.122Z,9.14
2023-01-08T01:00:57.887Z,9.18
2023-01-08T01:03:24.514Z,9.15
2023-01-08T01:05:59.494Z,9.27
2023-01-08T01:08:25.880Z,9.22
2023-01-08T01:10:52.480Z,9.23
2023-01-08T01:13:18.872Z,9.11
2023-01-08T01:15:45.462Z,9.11
2023-01-08T01:18:12.095Z,9.13
2023-01-08T01:20:38.782Z,9.04
2023-01-08T01:23:05.561Z,9.19
2023-01-08T01:25:37.159Z,9.17
2023-01-08T01:28:03.756Z,9.18
2023-01-08T01:30:30.334Z,9.24
2023-01-08T01:32:56.723Z,9.22
2023-01-08T01:35:23.187Z,9.12
2023-01-08T01:37:49.601Z,9.18
2023-01-08T01:40:16.296Z,9.17
2023-01-08T01:42:43.991Z,9.08
2023-01-08T01:45:14.832Z,9.13
2023-01-08T01:47:42.537Z,9.19
2023-01-08T01:50:24.548Z,9.12
2023-01-08T01:52:54.028Z,9.12
2023-01-08T01:55:20.981Z,9.14
2023-01-08T01:57:53.231Z,9.10
2023-01-08T02:00:20.323Z,9.10
2023-01-08T02:02:46.726Z,9.02
2023-01-08T02:05:13.479Z,9.06
2023-01-08T02:07:49.108Z,8.98
2023-01-08T02:10:37.052Z,8.98
2023-01-08T02:13:31.802Z,8.93
2023-01-08T02:16:15.838Z,8.92
2023-01-08T02:18:55.057Z,8.86
2023-01-08T02:21:29.125Z,8.98
2023-01-08T02:24:08.199Z,8.95
2023-01-08T02:26:35.847Z,8.87
2023-01-08T02:29:09.939Z,8.83
2023-01-08T02:31:40.495Z,8.83
2023-01-08T02:34:07.804Z,8.90
2023-01-08T02:36:34.230Z,8.87
2023-01-08T02:39:14.408Z,8.81
2023-01-08T02:41:47.938Z,8.91
2023-01-08T02:44:22.052Z,8.80
2023-01-08T02:46:52.263Z,8.76
2023-01-08T02:49:21.419Z,8.76
2023-01-08T02:51:54.564Z,8.75
2023-01-08T02:54:26.572Z,8.79
2023-01-08T02:57:14.758Z,8.78
2023-01-08T02:59:44.651Z,8.78
2023-01-08T03:02:12.179Z,8.79
2023-01-08T03:04:45.498Z,8.83
2023-01-08T03:07:12.069Z,8.86
2023-01-08T03:09:38.503Z,8.83
2023-01-08T03:12:18.587Z,8.87
2023-01-08T03:14:55.867Z,8.81
2023-01-08T03:17:39.508Z,8.85
2023-01-08T03:20:19.307Z,8.76
2023-01-08T03:22:49.537Z,8.77
2023-01-08T03:25:20.129Z,8.81
2023-01-08T03:27:51.033Z,8.73
2023-01-08T03:30:21.090Z,8.73
2023-01-08T03:32:50.048Z,8.69
2023-01-08T03:35:20.647Z,8.74
2023-01-08T03:37:54.255Z,8.76
2023-01-08T03:40:25.992Z,8.72
2023-01-08T03:42:52.729Z,8.73
2023-01-08T03:45:21.473Z,8.74
2023-01-08T03:47:48.796Z,8.86
2023-01-08T03:50:21.036Z,8.77
2023-01-08T03:52:47.405Z,8.73
2023-01-08T03:55:14.022Z,8.77
2023-01-08T03:57:40.403Z,8.70
2023-01-08T04:00:07.585Z,8.67
2023-01-08T04:02:34.795Z,8.70
2023-01-08T04:05:01.463Z,8.64
2023-01-08T04:07:27.969Z,8.61
2023-01-08T04:09:54.481Z,8.67
2023-01-08T04:12:20.884Z,8.63
2023-01-08T04:14:47.270Z,8.57
2023-01-08T04:17:14.126Z,8.59
2023-01-08T04:19:40.504Z,8.56
2023-01-08T04:22:08.998Z,8.58
2023-01-08T04:24:35.378Z,8.62
2023-01-08T04:27:01.823Z,8.61
2023-01-08T04:29:28.304Z,8.58
2023-01-08T04:31:54.742Z,8.53
2023-01-08T04:34:21.470Z,8.55
2023-01-08T04:36:47.826Z,8.57
2023-01-08T04:39:15.358Z,8.59
2023-01-08T04:41:41.824Z,8.50
2023-01-08T04:44:09.283Z,8.59
2023-01-08T04:46:36.396Z,8.55
2023-01-08T04:49:03.026Z,8.58
2023-01-08T04:51:29.584Z,8.56
2023-01-08T04:53:56.208Z,8.51
2023-01-08T04:56:22.717Z,8.53
2023-01-08T04:58:49.243Z,8.54
2023-01-08T05:01:23.842Z,8.48
2023-01-08T05:04:01.461Z,8.45
2023-01-08T05:06:29.767Z,8.44
2023-01-08T05:08:56.666Z,8.59
2023-01-08T05:11:23.907Z,8.55
2023-01-08T05:13:52.194Z,8.53
2023-01-08T05:16:18.904Z,8.56
2023-01-08T05:18:45.662Z,8.63
2023-01-08T05:21:13.601Z,8.50
2023-01-08T05:23:40.355Z,8.55
2023-01-08T05:26:07.499Z,8.45
2023-01-08T05:28:34.085Z,8.51
2023-01-08T05:31:00.661Z,8.45
2023-01-08T05:33:27.322Z,8.44
2023-01-08T05:35:53.842Z,8.42
2023-01-08T05:38:20.295Z,8.47
2023-01-08T05:40:46.789Z,8.40
2023-01-08T05:43:13.380Z,8.47
2023-01-08T05:45:39.976Z,8.39
2023-01-08T05:48:07.290Z,8.36
2023-01-08T05:50:34.385Z,8.42
2023-01-08T05:53:01.091Z,8.43
2023-01-08T05:55:27.685Z,8.42
2023-01-08T05:57:54.134Z,8.33
2023-01-08T06:00:20.855Z,8.30
2023-01-08T06:02:48.056Z,8.31
2023-01-08T06:05:14.826Z,8.29
2023-01-08T06:07:41.199Z,8.28
2023-01-08T06:10:08.332Z,8.27
2023-01-08T06:12:34.910Z,8.22
2023-01-08T06:15:01.449Z,8.33
2023-01-08T06:17:27.845Z,8.32
2023-01-08T06:19:54.216Z,8.29
2023-01-08T06:22:20.762Z,8.33
2023-01-08T06:24:47.128Z,8.39
2023-01-08T06:27:13.529Z,8.35
2023-01-08T06:29:40.108Z,8.34
2023-01-08T06:32:06.530Z,8.24
2023-01-08T06:34:33.089Z,8.21
2023-01-08T06:36:59.488Z,8.17
2023-01-08T06:39:26.229Z,8.20
2023-01-08T06:41:52.627Z,8.26
2023-01-08T06:44:19.238Z,8.29
2023-01-08T06:46:45.752Z,8.32
2023-01-08T06:49:13.720Z,8.33
2023-01-08T06:51:40.406Z,8.27
2023-01-08T06:54:06.991Z,8.30
2023-01-08T06:56:42.725Z,8.24
2023-01-08T06:59:19.055Z,8.20
2023-01-08T07:01:45.745Z,8.22
2023-01-08T07:04:12.234Z,8.25
2023-01-08T07:06:38.753Z,8.33
2023-01-08T07:09:05.189Z,8.17
2023-01-08T07:11:31.818Z,8.16
2023-01-08T07:13:58.281Z,8.07
2023-01-08T07:16:24.732Z,8.08
2023-01-08T07:18:51.387Z,8.03
2023-01-08T07:21:17.798Z,8.09
2023-01-08T07:23:47.153Z,8.07
2023-01-08T07:26:13.560Z,8.01
2023-01-08T07:28:40.049Z,7.99
2023-01-08T07:31:06.765Z,7.96
2023-01-08T07:33:34.238Z,7.92
2023-01-08T07:36:00.716Z,7.92
2023-01-08T07:38:27.379Z,7.92
2023-01-08T07:40:53.881Z,7.91
2023-01-08T07:43:20.430Z,7.92
2023-01-08T07:45:46.843Z,7.93
2023-01-08T07:48:16.466Z,7.91
2023-01-08T07:50:44.738Z,7.91
2023-01-08T07:53:13.557Z,7.91
2023-01-08T07:55:40.122Z,7.88
2023-01-08T07:58:11.321Z,7.91
2023-01-08T08:00:38.422Z,7.87
2023-01-08T08:03:07.535Z,7.89
2023-01-08T08:05:34.491Z,7.89
2023-01-08T08:08:01.235Z,7.88
2023-01-08T08:10:28.391Z,7.85
2023-01-08T08:12:55.359Z,8.07
2023-01-08T08:15:21.936Z,8.12
2023-01-08T08:17:48.926Z,8.05
2023-01-08T08:20:15.764Z,8.13
2023-01-08T08:22:42.240Z,8.08
2023-01-08T08:25:09.408Z,8.13
2023-01-08T08:27:35.980Z,8.08
2023-01-08T08:30:02.507Z,8.06
2023-01-08T08:32:28.929Z,8.05
2023-01-08T08:34:55.422Z,8.00
2023-01-08T08:37:22.022Z,8.12
2023-01-08T08:39:48.804Z,8.01
2023-01-08T08:42:15.180Z,8.05
2023-01-08T08:44:43.001Z,8.13
2023-01-08T08:47:09.716Z,8.07
2023-01-08T08:49:39.937Z,8.14
2023-01-08T08:52:06.845Z,8.09
2023-01-08T08:54:33.489Z,8.07
2023-01-08T08:56:59.871Z,8.01
2023-01-08T08:59:26.425Z,8.04
2023-01-08T09:01:52.899Z,8.11
2023-01-08T09:04:19.474Z,8.13
2023-01-08T09:06:45.931Z,8.08
2023-01-08T09:09:12.545Z,8.01
2023-01-08T09:11:39.047Z,8.06
2023-01-08T09:14:05.459Z,8.03
2023-01-08T09:16:33.141Z,8.12
2023-01-08T09:18:59.592Z,8.08
2023-01-08T09:21:26.159Z,8.08
2023-01-08T09:23:52.700Z,8.14
2023-01-08T09:26:19.335Z,7.95
2023-01-08T09:28:45.724Z,7.87
2023-01-08T09:31:12.309Z,7.81
2023-01-08T09:33:38.787Z,7.76
2023-01-08T09:36:11.294Z,7.68
2023-01-08T09:38:37.730Z,7.67
2023-01-08T09:41:11.764Z,7.68
2023-01-08T09:43:43.449Z,7.65
2023-01-08T09:46:11.804Z,7.63
2023-01-08T09:48:41.253Z,7.64
2023-01-08T09:51:14.230Z,7.69
2023-01-08T09:53:42.517Z,7.78
2023-01-08T09:56:18.662Z,7.91
2023-01-08T09:58:50.318Z,7.95
2023-01-08T10:01:23.621Z,8.03
2023-01-08T10:04:05.940Z,8.06
2023-01-08T10:06:33.046Z,8.18
2023-01-08T10:08:59.877Z,8.24
2023-01-08T10:11:33.213Z,8.24
2023-01-08T10:13:59.664Z,8.34
2023-01-08T10:16:37.851Z,8.32
2023-01-08T10:19:04.893Z,8.36
2023-01-08T10:21:37.761Z,8.42
2023-01-08T10:24:04.517Z,8.41
2023-01-08T10:26:36.732Z,8.52
2023-01-08T10:29:29.697Z,8.53
2023-01-08T10:31:58.479Z,8.53
2023-01-08T10:34:41.437Z,8.60
2023-01-08T10:37:24.153Z,8.55
2023-01-08T10:39:52.645Z,8.68
2023-01-08T10:42:20.803Z,8.66
2023-01-08T10:45:21.684Z,8.69
2023-01-08T10:47:50.209Z,8.76
2023-01-08T10:50:23.829Z,8.72
2023-01-08T10:53:24.320Z,8.82
2023-01-08T10:55:58.911Z,8.78
2023-01-08T10:58:30.603Z,8.87
2023-01-08T11:01:11.185Z,8.86
2023-01-08T11:03:38.020Z,8.93
2023-01-08T11:06:13.703Z,8.99
2023-01-08T11:08:51.511Z,8.93
2023-01-08T11:11:18.865Z,9.06
2023-01-08T11:13:55.842Z,9.03
2023-01-08T11:16:23.858Z,9.12
2023-01-08T11:18:51.700Z,9.31
2023-01-08T11:21:24.380Z,9.32
2023-01-08T11:24:18.465Z,9.34
2023-01-08T11:26:56.694Z,9.27
2023-01-08T11:29:52.276Z,9.37
2023-01-08T11:32:32.577Z,9.35
2023-01-08T11:35:04.175Z,9.36
2023-01-08T11:37:35.883Z,9.29
2023-01-08T11:40:02.857Z,9.25
2023-01-08T11:42:48.044Z,9.26
2023-01-08T11:45:26.840Z,9.31
2023-01-08T11:48:05.309Z,9.44
2023-01-08T11:50:49.273Z,9.53
2023-01-08T11:53:35.999Z,9.61
2023-01-08T11:56:20.243Z,9.64
2023-01-08T11:59:00.636Z,9.63
2023-01-08T12:01:33.183Z,9.66
2023-01-08T12:04:33.593Z,9.73
2023-01-08T12:07:21.109Z,9.83
2023-01-08T12:10:00.482Z,9.77
2023-01-08T12:12:47.265Z,9.70
2023-01-08T12:15:26.518Z,9.68
2023-01-08T12:18:25.929Z,9.62
2023-01-08T12:21:10.731Z,9.54
2023-01-08T12:23:49.693Z,9.60
2023-01-08T12:26:41.860Z,9.70
2023-01-08T12:29:36.017Z,9.61
2023-01-08T12:32:24.418Z,9.45
2023-01-08T12:35:09.712Z,9.32
2023-01-08T12:37:55.421Z,9.29
2023-01-08T12:40:35.905Z,9.48
2023-01-08T12:43:11.126Z,9.63
2023-01-08T12:45:44.788Z,9.57
2023-01-08T12:48:19.403Z,9.45
2023-01-08T12:51:07.748Z,9.39
2023-01-08T12:53:34.186Z,9.26
2023-01-08T12:56:09.827Z,9.31
2023-01-08T12:58:47.102Z,9.25
2023-01-08T13:01:49.116Z,9.36
2023-01-08T13:04:16.449Z,9.47
2023-01-08T13:06:51.223Z,9.47
2023-01-08T13:09:27.744Z,9.46
2023-01-08T13:11:57.350Z,9.42
2023-01-08T13:14:26.765Z,9.48
2023-01-08T13:17:06.392Z,9.49
2023-01-08T13:19:41.809Z,9.42
2023-01-08T13:22:38.138Z,9.38
2023-01-08T13:25:14.999Z,9.29
2023-01-08T13:27:42.273Z,9.31
2023-01-08T13:30:33.859Z,9.15
2023-01-08T13:33:00.778Z,9.07
2023-01-08T13:35:49.450Z,9.03
2023-01-08T13:38:18.542Z,9.12
2023-01-08T13:40:45.010Z,9.18
2023-01-08T13:43:15.442Z,9.16
2023-01-08T13:45:42.891Z,9.13
2023-01-08T13:48:24.623Z,9.20
2023-01-08T13:50:51.340Z,9.14
2023-01-08T13:53:19.530Z,9.10
2023-01-08T13:55:54.962Z,9.16
2023-01-08T13:58:30.975Z,9.23
2023-01-08T14:00:59.564Z,9.20
2023-01-08T14:03:39.915Z,9.38
2023-01-08T14:06:19.938Z,9.53
2023-01-08T14:08:57.449Z,9.61
2023-01-08T14:11:29.337Z,9.67
2023-01-08T14:13:57.197Z,9.68
2023-01-08T14:16:24.365Z,9.68
2023-01-08T14:18:51.740Z,9.58
2023-01-08T14:21:22.937Z,9.43
2023-01-08T14:23:51.598Z,9.35
2023-01-08T14:26:25.822Z,9.29
2023-01-08T14:28:52.971Z,9.25
2023-01-08T14:31:22.270Z,9.15
2023-01-08T14:33:50.574Z,9.08
2023-01-08T14:36:19.165Z,9.01
2023-01-08T14:38:50.558Z,8.95
2023-01-08T14:41:54.685Z,8.94
2023-01-08T14:44:36.378Z,8.94
2023-01-08T14:47:05.232Z,8.89
2023-01-08T14:49:34.846Z,8.96
2023-01-08T14:52:02.757Z,8.92
2023-01-08T14:54:34.749Z,8.86
2023-01-08T14:57:02.602Z,8.84
2023-01-08T14:59:33.964Z,8.87
2023-01-08T15:02:02.899Z,8.83
2023-01-08T15:04:30.503Z,8.70
2023-01-08T15:07:25.308Z,8.74
2023-01-08T15:10:00.999Z,8.62
2023-01-08T15:12:32.859Z,8.73
2023-01-08T15:15:10.145Z,8.58
2023-01-08T15:17:36.637Z,8.58
2023-01-08T15:20:03.379Z,8.48
2023-01-08T15:22:32.827Z,8.42
2023-01-08T15:25:02.666Z,8.32
2023-01-08T15:27:31.471Z,8.26
2023-01-08T15:30:03.432Z,8.15
2023-01-08T15:32:36.884Z,8.14
2023-01-08T15:35:18.017Z,8.12
2023-01-08T15:37:45.223Z,8.11
2023-01-08T15:40:12.630Z,8.14
2023-01-08T15:42:57.734Z,8.10
2023-01-08T15:45:29.327Z,8.00
2023-01-08T15:47:56.361Z,7.93
2023-01-08T15:50:24.862Z,7.87
2023-01-08T15:52:51.552Z,7.76
2023-01-08T15:55:20.771Z,7.72
2023-01-08T15:57:47.462Z,7.72
2023-01-08T16:00:15.829Z,7.62
2023-01-08T16:02:46.363Z,7.65
2023-01-08T16:05:13.869Z,7.59
2023-01-08T16:07:40.436Z,7.68
2023-01-08T16:10:07.523Z,7.67
2023-01-08T16:12:33.966Z,7.51
2023-01-08T16:15:00.424Z,7.49
2023-01-08T16:17:29.828Z,7.56
2023-01-08T16:19:56.349Z,7.49
2023-01-08T16:22:22.720Z,7.46
2023-01-08T16:24:49.239Z,7.35
2023-01-08T16:27:15.703Z,7.39
2023-01-08T16:29:42.184Z,7.38
2023-01-08T16:32:08.571Z,7.41
2023-01-08T16:34:35.176Z,7.39
2023-01-08T16:37:01.591Z,7.40
2023-01-08T16:39:28.647Z,7.34
2023-01-08T16:41:55.061Z,7.34
2023-01-08T16:44:26.279Z,7.29
2023-01-08T16:46:53.338Z,7.22
2023-01-08T16:49:20.143Z,7.27
2023-01-08T16:51:46.576Z,7.26
2023-01-08T16:54:14.652Z,7.27
2023-01-08T16:56:41.026Z,7.23
2023-01-08T16:59:18.293Z,7.22
2023-01-08T17:01:49.333Z,7.17
2023-01-08T17:04:15.793Z,7.14
2023-01-08T17:06:42.161Z,7.03
2023-01-08T17:09:11.345Z,7.01
2023-01-08T17:11:38.216Z,7.00
2023-01-08T17:14:04.663Z,6.98
2023-01-08T17:16:31.450Z,6.88
2023-01-08T17:18:57.943Z,6.94
2023-01-08T17:21:24.523Z,7.01
2023-01-08T17:23:50.912Z,7.11
2023-01-08T17:26:17.928Z,7.06
2023-01-08T17:28:44.990Z,7.04
2023-01-08T17:31:18.380Z,6.99
2023-01-08T17:33:49.649Z,6.98
2023-01-08T17:36:18.129Z,6.98
2023-01-08T17:38:46.649Z,6.89
2023-01-08T17:41:36.325Z,6.98
2023-01-08T17:44:06.643Z,6.89
2023-01-08T17:46:39.611Z,6.81
2023-01-08T17:49:06.055Z,6.85
2023-01-08T17:51:33.388Z,6.74
2023-01-08T17:54:00.484Z,6.69
2023-01-08T17:56:27.715Z,6.66
2023-01-08T17:58:54.164Z,6.66
2023-01-08T18:01:21.079Z,6.62
2023-01-08T18:03:47.891Z,6.62
2023-01-08T18:06:14.491Z,6.63
2023-01-08T18:08:41.459Z,6.60
2023-01-08T18:11:09.727Z,6.56
2023-01-08T18:13:36.759Z,6.50
2023-01-08T18:16:05.362Z,6.49
2023-01-08T18:18:32.082Z,6.58
2023-01-08T18:20:58.676Z,6.51
2023-01-08T18:23:25.340Z,6.66
2023-01-08T18:25:52.096Z,6.55
2023-01-08T18:28:18.815Z,6.56
2023-01-08T18:30:48.116Z,6.56
2023-01-08T18:33:15.411Z,6.54
2023-01-08T18:35:42.182Z,6.64
2023-01-08T18:38:15.805Z,6.68
2023-01-08T18:40:43.440Z,6.62
2023-01-08T18:43:11.126Z,6.70
2023-01-08T18:45:39.384Z,6.74
2023-01-08T18:48:09.286Z,6.70
2023-01-08T18:50:40.262Z,6.98
2023-01-08T18:53:09.078Z,6.96
2023-01-08T18:55:37.233Z,7.12
2023-01-08T18:58:04.639Z,7.23
2023-01-08T19:00:31.701Z,7.09
2023-01-08T19:02:58.557Z,7.04
2023-01-08T19:05:25.049Z,7.02
2023-01-08T19:07:51.542Z,7.01
2023-01-08T19:10:18.074Z,7.06
2023-01-08T19:12:44.891Z,7.02
2023-01-08T19:15:11.954Z,7.02
2023-01-08T19:17:38.626Z,7.06
2023-01-08T19:20:05.871Z,7.17
2023-01-08T19:22:32.595Z,7.26
2023-01-08T19:24:59.101Z,7.22
2023-01-08T19:27:25.506Z,7.22
2023-01-08T19:29:52.017Z,7.27
2023-01-08T19:32:18.417Z,7.26
2023-01-08T19:34:44.994Z,7.43
2023-01-08T19:37:11.930Z,7.51
2023-01-08T19:39:38.525Z,7.50
2023-01-08T19:42:23.724Z,7.47
2023-01-08T19:44:50.209Z,7.51
2023-01-08T19:47:16.904Z,7.48
2023-01-08T19:49:47.483Z,7.54
2023-01-08T19:52:15.359Z,7.60
2023-01-08T19:54:42.526Z,7.58
2023-01-08T19:57:09.042Z,7.61
2023-01-08T19:59:35.653Z,7.69
2023-01-08T20:02:02.318Z,7.66
2023-01-08T20:04:30.768Z,7.74
2023-01-08T20:06:59.236Z,7.76
2023-01-08T20:09:25.644Z,7.90
2023-01-08T20:11:52.049Z,7.76
2023-01-08T20:14:20.879Z,7.73
2023-01-08T20:16:47.556Z,7.74
2023-01-08T20:19:14.146Z,7.67
2023-01-08T20:21:40.567Z,7.75
2023-01-08T20:24:11.080Z,7.73
2023-01-08T20:26:38.273Z,7.71
2023-01-08T20:29:05.754Z,7.80
2023-01-08T20:31:35.532Z,7.72
2023-01-08T20:34:04.951Z,7.72
2023-01-08T20:36:33.678Z,7.67
2023-01-08T20:39:02.834Z,7.72
2023-01-08T20:41:29.875Z,7.69
2023-01-08T20:43:56.962Z,7.76
2023-01-08T20:46:28.931Z,7.72
2023-01-08T20:48:56.868Z,7.70
2023-01-08T20:51:23.392Z,7.71
2023-01-08T20:53:49.795Z,7.77
2023-01-08T20:56:16.866Z,7.73
2023-01-08T20:58:46.402Z,7.75
2023-01-08T21:01:15.774Z,7.84
2023-01-08T21:03:43.492Z,7.91
2023-01-08T21:06:13.116Z,7.91
2023-01-08T21:08:40.916Z,7.85
2023-01-08T21:11:08.988Z,7.83
2023-01-08T21:13:36.225Z,7.80
2023-01-08T21:16:07.547Z,7.77
2023-01-08T21:18:34.088Z,7.86
2023-01-08T21:21:03.563Z,7.83
2023-01-08T21:23:31.863Z,7.91
2023-01-08T21:26:03.946Z,7.86
2023-01-08T21:28:30.688Z,7.90
2023-01-08T21:31:08.124Z,7.94
2023-01-08T21:33:34.771Z,7.99
2023-01-08T21:36:10.491Z,7.87
2023-01-08T21:38:37.641Z,7.88
2023-01-08T21:41:07.394Z,7.86
2023-01-08T21:43:53.058Z,7.81
2023-01-08T21:46:23.436Z,7.84
2023-01-08T21:48:51.934Z,7.85
2023-01-08T21:51:37.154Z,7.82
2023-01-08T21:54:04.178Z,7.86
2023-01-08T21:56:31.119Z,7.89
2023-01-08T21:58:57.573Z,7.84
2023-01-08T22:01:24.176Z,7.88
2023-01-08T22:03:50.661Z,7.81
2023-01-08T22:06:17.210Z,7.81
2023-01-08T22:08:45.101Z,7.82
2023-01-08T22:11:11.564Z,7.92
2023-01-08T22:13:39.247Z,7.90
2023-01-08T22:16:09.097Z,7.86
2023-01-08T22:18:36.125Z,7.87
2023-01-08T22:21:08.160Z,7.82
2023-01-08T22:23:34.918Z,7.82
2023-01-08T22:26:06.524Z,7.79
2023-01-08T22:28:33.408Z,7.91
2023-01-08T22:31:04.137Z,7.92
2023-01-08T22:33:30.538Z,7.83
2023-01-08T22:35:57.321Z,7.81
2023-01-08T22:38:23.815Z,7.72
2023-01-08T22:40:50.337Z,7.70
2023-01-08T22:43:17.018Z,7.67
2023-01-08T22:45:43.496Z,7.60
2023-01-08T22:48:09.954Z,7.54
2023-01-08T22:50:36.543Z,7.59
2023-01-08T22:53:03.042Z,7.54
2023-01-08T22:55:29.582Z,7.58
2023-01-08T22:57:56.253Z,7.58
2023-01-08T23:00:22.671Z,7.50
2023-01-08T23:02:49.082Z,7.51
2023-01-08T23:05:15.711Z,7.40
2023-01-08T23:07:42.178Z,7.28
2023-01-08T23:10:09.962Z,7.35
2023-01-08T23:12:36.638Z,7.39
2023-01-08T23:15:04.350Z,7.37
2023-01-08T23:17:32.384Z,7.31
2023-01-08T23:20:00.056Z,7.28
2023-01-08T23:22:26.641Z,7.33
2023-01-08T23:24:52.983Z,7.26
2023-01-08T23:27:19.578Z,7.32
2023-01-08T23:29:45.969Z,7.23
2023-01-08T23:32:12.519Z,7.28
2023-01-08T23:34:38.919Z,7.41
2023-01-08T23:37:05.481Z,7.39
2023-01-08T23:39:31.975Z,7.43
2023-01-08T23:41:58.625Z,7.37
2023-01-08T23:44:25.090Z,7.33
2023-01-08T23:46:51.634Z,7.35
2023-01-08T23:49:18.086Z,7.33
2023-01-08T23:51:44.595Z,7.30
2023-01-08T23:54:12.087Z,7.28
2023-01-08T23:56:39.644Z,7.26
2023-01-08T23:59:06.100Z,7.18
